sensor_id;sensor_type;location;lat;lon;timestamp;temperature;humidity
37906;DHT22;23739;51.448;6.674;2023-08-20T00:01:38;18.80;99.90
37906;DHT22;23739;51.448;6.674;2023-08-20T00:04:04;18.90;99.90
37906;DHT22;23739;51.448;6.674;2023-08-20T00:06:31;18.90;99.90
37906;DHT22;23739;51.448;6.674;2023-08-20T00:08:57;18.80;99.90
37906;DHT22;23739;51.448;6.674;2023-08-20T00:11:23;18.70;99.90
37906;DHT22;23739;51.448;6.674;2023-08-20T00:13:49;18.70;99.90
37906;DHT22;23739;51.448;6.674;2023-08-20T00:16:15;18.70;99.90
37906;DHT22;23739;51.448;6.674;2023-08-20T00:18:41;18.70;99.90
37906;DHT22;23739;51.448;6.674;2023-08-20T00:21:07;18.70;99.90
37906;DHT22;23739;51.448;6.674;2023-08-20T00:23:37;18.70;99.90
37906;DHT22;23739;51.448;6.674;2023-08-20T00:26:03;18.70;99.90
37906;DHT22;23739;51.448;6.674;2023-08-20T00:28:29;18.60;99.90
37906;DHT22;23739;51.448;6.674;2023-08-20T00:30:55;18.60;99.90
37906;DHT22;23739;51.448;6.674;2023-08-20T00:33:21;18.60;99.90
37906;DHT22;23739;51.448;6.674;2023-08-20T00:35:47;18.60;99.90
37906;DHT22;23739;51.448;6.674;2023-08-20T00:38:13;18.60;99.90
37906;DHT22;23739;51.448;6.674;2023-08-20T00:40:38;18.50;99.90
37906;DHT22;23739;51.448;6.674;2023-08-20T00:43:04;18.50;99.90
37906;DHT22;23739;51.448;6.674;2023-08-20T00:45:30;18.50;99.90
37906;DHT22;23739;51.448;6.674;2023-08-20T00:47:56;18.50;99.90
37906;DHT22;23739;51.448;6.674;2023-08-20T00:50:22;18.50;99.90
37906;DHT22;23739;51.448;6.674;2023-08-20T00:52:48;18.50;99.90
37906;DHT22;23739;51.448;6.674;2023-08-20T00:55:14;18.50;99.90
37906;DHT22;23739;51.448;6.674;2023-08-20T00:57:40;18.40;99.90
37906;DHT22;23739;51.448;6.674;2023-08-20T01:00:07;18.40;99.90
37906;DHT22;23739;51.448;6.674;2023-08-20T01:02:37;18.40;99.90
37906;DHT22;23739;51.448;6.674;2023-08-20T01:05:05;18.40;99.90
37906;DHT22;23739;51.448;6.674;2023-08-20T01:10:36;18.40;99.90
37906;DHT22;23739;51.448;6.674;2023-08-20T01:13:06;18.40;99.90
37906;DHT22;23739;51.448;6.674;2023-08-20T01:15:32;18.30;99.90
37906;DHT22;23739;51.448;6.674;2023-08-20T01:17:58;18.30;99.90
37906;DHT22;23739;51.448;6.674;2023-08-20T01:20:29;18.30;99.90
37906;DHT22;23739;51.448;6.674;2023-08-20T01:23:03;18.30;99.90
37906;DHT22;23739;51.448;6.674;2023-08-20T01:28:29;18.30;99.90
37906;DHT22;23739;51.448;6.674;2023-08-20T01:30:57;18.30;99.90
37906;DHT22;23739;51.448;6.674;2023-08-20T01:33:24;18.30;99.90
37906;DHT22;23739;51.448;6.674;2023-08-20T01:35:51;18.30;99.90
37906;DHT22;23739;51.448;6.674;2023-08-20T01:38:17;18.30;99.90
37906;DHT22;23739;51.448;6.674;2023-08-20T01:40:43;18.30;99.90
37906;DHT22;23739;51.448;6.674;2023-08-20T01:43:09;18.30;99.90
37906;DHT22;23739;51.448;6.674;2023-08-20T01:45:35;18.30;99.90
37906;DHT22;23739;51.448;6.674;2023-08-20T01:48:00;18.20;99.90
37906;DHT22;23739;51.448;6.674;2023-08-20T01:50:26;18.20;99.90
37906;DHT22;23739;51.448;6.674;2023-08-20T01:52:52;18.10;99.90
37906;DHT22;23739;51.448;6.674;2023-08-20T01:55:18;18.10;99.90
37906;DHT22;23739;51.448;6.674;2023-08-20T01:57:44;18.10;99.90
37906;DHT22;23739;51.448;6.674;2023-08-20T02:00:10;18.10;99.90
37906;DHT22;23739;51.448;6.674;2023-08-20T02:02:36;18.20;99.90
37906;DHT22;23739;51.448;6.674;2023-08-20T02:05:02;18.20;99.90
37906;DHT22;23739;51.448;6.674;2023-08-20T02:07:28;18.30;99.90
37906;DHT22;23739;51.448;6.674;2023-08-20T02:09:54;18.30;99.90
37906;DHT22;23739;51.448;6.674;2023-08-20T02:12:20;18.20;99.90
37906;DHT22;23739;51.448;6.674;2023-08-20T02:14:45;18.30;99.90
37906;DHT22;23739;51.448;6.674;2023-08-20T02:17:11;18.40;99.90
37906;DHT22;23739;51.448;6.674;2023-08-20T02:19:38;18.40;99.90
37906;DHT22;23739;51.448;6.674;2023-08-20T02:22:04;18.50;99.90
37906;DHT22;23739;51.448;6.674;2023-08-20T02:24:30;18.60;99.90
37906;DHT22;23739;51.448;6.674;2023-08-20T02:26:56;18.60;99.90
37906;DHT22;23739;51.448;6.674;2023-08-20T02:29:22;18.60;99.90
37906;DHT22;23739;51.448;6.674;2023-08-20T02:31:48;18.60;99.90
37906;DHT22;23739;51.448;6.674;2023-08-20T02:34:14;18.70;99.90
37906;DHT22;23739;51.448;6.674;2023-08-20T02:36:39;18.70;99.90
37906;DHT22;23739;51.448;6.674;2023-08-20T02:39:05;18.70;99.90
37906;DHT22;23739;51.448;6.674;2023-08-20T02:41:34;18.70;99.90
37906;DHT22;23739;51.448;6.674;2023-08-20T02:44:01;18.60;99.90
37906;DHT22;23739;51.448;6.674;2023-08-20T02:46:27;18.60;99.90
37906;DHT22;23739;51.448;6.674;2023-08-20T02:48:53;18.60;99.90
37906;DHT22;23739;51.448;6.674;2023-08-20T02:51:19;18.60;99.90
37906;DHT22;23739;51.448;6.674;2023-08-20T02:53:44;18.50;99.90
37906;DHT22;23739;51.448;6.674;2023-08-20T02:56:10;18.50;99.90
37906;DHT22;23739;51.448;6.674;2023-08-20T02:58:36;18.50;99.90
37906;DHT22;23739;51.448;6.674;2023-08-20T03:01:02;18.50;99.90
37906;DHT22;23739;51.448;6.674;2023-08-20T03:03:28;18.50;99.90
37906;DHT22;23739;51.448;6.674;2023-08-20T03:05:54;18.50;99.90
37906;DHT22;23739;51.448;6.674;2023-08-20T03:08:20;18.40;99.90
37906;DHT22;23739;51.448;6.674;2023-08-20T03:10:45;18.40;99.90
37906;DHT22;23739;51.448;6.674;2023-08-20T03:13:11;18.40;99.90
37906;DHT22;23739;51.448;6.674;2023-08-20T03:15:37;18.40;99.90
37906;DHT22;23739;51.448;6.674;2023-08-20T03:18:03;18.40;99.90
37906;DHT22;23739;51.448;6.674;2023-08-20T03:20:29;18.40;99.90
37906;DHT22;23739;51.448;6.674;2023-08-20T03:22:56;18.40;99.90
37906;DHT22;23739;51.448;6.674;2023-08-20T03:25:23;18.50;99.90
37906;DHT22;23739;51.448;6.674;2023-08-20T03:27:49;18.50;99.90
37906;DHT22;23739;51.448;6.674;2023-08-20T03:30:15;18.50;99.90
37906;DHT22;23739;51.448;6.674;2023-08-20T03:32:41;18.40;99.90
37906;DHT22;23739;51.448;6.674;2023-08-20T03:35:07;18.50;99.90
37906;DHT22;23739;51.448;6.674;2023-08-20T03:37:33;18.50;99.90
37906;DHT22;23739;51.448;6.674;2023-08-20T03:39:59;18.40;99.90
37906;DHT22;23739;51.448;6.674;2023-08-20T03:42:24;18.40;99.90
37906;DHT22;23739;51.448;6.674;2023-08-20T03:44:50;18.40;99.90
37906;DHT22;23739;51.448;6.674;2023-08-20T03:47:16;18.30;99.90
37906;DHT22;23739;51.448;6.674;2023-08-20T03:49:46;18.30;99.90
37906;DHT22;23739;51.448;6.674;2023-08-20T03:52:12;18.20;99.90
37906;DHT22;23739;51.448;6.674;2023-08-20T03:54:38;18.10;99.90
37906;DHT22;23739;51.448;6.674;2023-08-20T03:57:04;18.10;99.90
37906;DHT22;23739;51.448;6.674;2023-08-20T03:59:30;18.10;99.90
37906;DHT22;23739;51.448;6.674;2023-08-20T04:01:56;18.10;99.90
37906;DHT22;23739;51.448;6.674;2023-08-20T04:04:22;18.10;99.90
37906;DHT22;23739;51.448;6.674;2023-08-20T04:06:48;18.10;99.90
37906;DHT22;23739;51.448;6.674;2023-08-20T04:09:14;18.00;99.90
37906;DHT22;23739;51.448;6.674;2023-08-20T04:11:40;18.10;99.90
37906;DHT22;23739;51.448;6.674;2023-08-20T04:14:05;18.10;99.90
37906;DHT22;23739;51.448;6.674;2023-08-20T04:16:31;18.00;99.90
37906;DHT22;23739;51.448;6.674;2023-08-20T04:18:57;18.00;99.90
37906;DHT22;23739;51.448;6.674;2023-08-20T04:21:23;18.00;99.90
37906;DHT22;23739;51.448;6.674;2023-08-20T04:23:48;18.00;99.90
37906;DHT22;23739;51.448;6.674;2023-08-20T04:26:14;18.00;99.90
37906;DHT22;23739;51.448;6.674;2023-08-20T04:28:40;17.90;99.90
37906;DHT22;23739;51.448;6.674;2023-08-20T04:31:05;17.90;99.90
37906;DHT22;23739;51.448;6.674;2023-08-20T04:33:31;17.90;99.90
37906;DHT22;23739;51.448;6.674;2023-08-20T04:35:57;17.90;99.90
37906;DHT22;23739;51.448;6.674;2023-08-20T04:38:23;17.90;99.90
37906;DHT22;23739;51.448;6.674;2023-08-20T04:40:49;17.80;99.90
37906;DHT22;23739;51.448;6.674;2023-08-20T04:43:15;17.80;99.90
37906;DHT22;23739;51.448;6.674;2023-08-20T04:45:41;17.80;99.90
37906;DHT22;23739;51.448;6.674;2023-08-20T04:48:08;17.80;99.90
37906;DHT22;23739;51.448;6.674;2023-08-20T04:50:34;17.90;99.90
37906;DHT22;23739;51.448;6.674;2023-08-20T04:53:00;17.90;99.90
37906;DHT22;23739;51.448;6.674;2023-08-20T04:55:27;17.90;99.90
37906;DHT22;23739;51.448;6.674;2023-08-20T04:57:53;17.90;99.90
37906;DHT22;23739;51.448;6.674;2023-08-20T05:00:18;17.90;99.90
37906;DHT22;23739;51.448;6.674;2023-08-20T05:02:45;17.90;99.90
37906;DHT22;23739;51.448;6.674;2023-08-20T05:05:11;17.90;99.90
37906;DHT22;23739;51.448;6.674;2023-08-20T05:07:37;18.00;99.90
37906;DHT22;23739;51.448;6.674;2023-08-20T05:10:03;18.00;99.90
37906;DHT22;23739;51.448;6.674;2023-08-20T05:12:29;18.10;99.90
37906;DHT22;23739;51.448;6.674;2023-08-20T05:14:54;18.10;99.90
37906;DHT22;23739;51.448;6.674;2023-08-20T05:17:20;18.10;99.90
37906;DHT22;23739;51.448;6.674;2023-08-20T05:19:46;18.20;99.90
37906;DHT22;23739;51.448;6.674;2023-08-20T05:22:12;18.30;99.90
37906;DHT22;23739;51.448;6.674;2023-08-20T05:24:38;18.30;99.90
37906;DHT22;23739;51.448;6.674;2023-08-20T05:27:15;18.40;99.90
37906;DHT22;23739;51.448;6.674;2023-08-20T05:29:42;18.50;99.90
37906;DHT22;23739;51.448;6.674;2023-08-20T05:32:08;18.50;99.90
37906;DHT22;23739;51.448;6.674;2023-08-20T05:34:34;18.60;99.90
37906;DHT22;23739;51.448;6.674;2023-08-20T05:37:01;18.60;99.90
37906;DHT22;23739;51.448;6.674;2023-08-20T05:39:27;18.70;99.90
37906;DHT22;23739;51.448;6.674;2023-08-20T05:41:53;18.80;99.90
37906;DHT22;23739;51.448;6.674;2023-08-20T05:44:20;19.00;99.90
37906;DHT22;23739;51.448;6.674;2023-08-20T05:46:46;19.00;99.90
37906;DHT22;23739;51.448;6.674;2023-08-20T05:49:15;19.10;99.90
37906;DHT22;23739;51.448;6.674;2023-08-20T05:51:43;19.10;99.90
37906;DHT22;23739;51.448;6.674;2023-08-20T05:54:09;19.10;99.90
37906;DHT22;23739;51.448;6.674;2023-08-20T05:56:35;19.20;99.90
37906;DHT22;23739;51.448;6.674;2023-08-20T05:59:01;19.30;99.90
37906;DHT22;23739;51.448;6.674;2023-08-20T06:01:27;19.50;99.90
37906;DHT22;23739;51.448;6.674;2023-08-20T06:03:52;19.60;99.90
37906;DHT22;23739;51.448;6.674;2023-08-20T06:06:18;19.70;99.90
37906;DHT22;23739;51.448;6.674;2023-08-20T06:08:44;19.80;99.90
37906;DHT22;23739;51.448;6.674;2023-08-20T06:11:10;19.90;99.90
37906;DHT22;23739;51.448;6.674;2023-08-20T06:13:35;20.10;99.90
37906;DHT22;23739;51.448;6.674;2023-08-20T06:16:01;20.20;99.90
37906;DHT22;23739;51.448;6.674;2023-08-20T06:18:27;20.40;99.90
37906;DHT22;23739;51.448;6.674;2023-08-20T06:20:53;20.70;99.90
37906;DHT22;23739;51.448;6.674;2023-08-20T06:23:18;21.00;99.90
37906;DHT22;23739;51.448;6.674;2023-08-20T06:25:44;21.10;99.90
37906;DHT22;23739;51.448;6.674;2023-08-20T06:28:11;21.30;99.90
37906;DHT22;23739;51.448;6.674;2023-08-20T06:30:37;21.40;99.40
37906;DHT22;23739;51.448;6.674;2023-08-20T06:33:03;21.40;98.50
37906;DHT22;23739;51.448;6.674;2023-08-20T06:35:29;21.20;99.80
37906;DHT22;23739;51.448;6.674;2023-08-20T06:37:55;21.20;99.90
37906;DHT22;23739;51.448;6.674;2023-08-20T06:40:20;21.40;99.30
37906;DHT22;23739;51.448;6.674;2023-08-20T06:42:46;21.40;99.00
37906;DHT22;23739;51.448;6.674;2023-08-20T06:45:12;21.50;98.10
37906;DHT22;23739;51.448;6.674;2023-08-20T06:47:37;21.80;98.50
37906;DHT22;23739;51.448;6.674;2023-08-20T06:50:04;22.20;94.50
37906;DHT22;23739;51.448;6.674;2023-08-20T06:52:30;22.40;92.50
37906;DHT22;23739;51.448;6.674;2023-08-20T06:54:55;22.80;91.50
37906;DHT22;23739;51.448;6.674;2023-08-20T06:57:21;23.20;88.70
37906;DHT22;23739;51.448;6.674;2023-08-20T06:59:47;22.80;85.00
37906;DHT22;23739;51.448;6.674;2023-08-20T07:02:13;22.90;89.50
37906;DHT22;23739;51.448;6.674;2023-08-20T07:04:39;23.10;82.20
37906;DHT22;23739;51.448;6.674;2023-08-20T07:07:05;23.10;78.40
37906;DHT22;23739;51.448;6.674;2023-08-20T07:09:31;23.00;80.30
37906;DHT22;23739;51.448;6.674;2023-08-20T07:11:57;23.00;78.90
37906;DHT22;23739;51.448;6.674;2023-08-20T07:14:22;23.20;84.80
37906;DHT22;23739;51.448;6.674;2023-08-20T07:16:48;23.40;77.20
37906;DHT22;23739;51.448;6.674;2023-08-20T07:19:14;23.40;77.70
37906;DHT22;23739;51.448;6.674;2023-08-20T07:21:40;23.50;73.30
37906;DHT22;23739;51.448;6.674;2023-08-20T07:24:06;23.70;82.30
37906;DHT22;23739;51.448;6.674;2023-08-20T07:26:32;24.30;73.10
37906;DHT22;23739;51.448;6.674;2023-08-20T07:28:57;24.20;65.50
37906;DHT22;23739;51.448;6.674;2023-08-20T07:31:24;24.20;67.20
37906;DHT22;23739;51.448;6.674;2023-08-20T07:33:51;24.10;68.70
37906;DHT22;23739;51.448;6.674;2023-08-20T07:36:18;24.40;67.90
37906;DHT22;23739;51.448;6.674;2023-08-20T07:38:44;24.50;70.00
37906;DHT22;23739;51.448;6.674;2023-08-20T07:41:11;25.00;58.10
37906;DHT22;23739;51.448;6.674;2023-08-20T07:43:40;25.10;55.80
37906;DHT22;23739;51.448;6.674;2023-08-20T07:46:07;25.00;61.10
37906;DHT22;23739;51.448;6.674;2023-08-20T07:48:34;25.10;55.10
37906;DHT22;23739;51.448;6.674;2023-08-20T07:51:01;24.90;53.70
37906;DHT22;23739;51.448;6.674;2023-08-20T07:53:26;24.50;58.40
37906;DHT22;23739;51.448;6.674;2023-08-20T07:55:52;24.50;59.10
37906;DHT22;23739;51.448;6.674;2023-08-20T07:58:18;24.50;69.60
37906;DHT22;23739;51.448;6.674;2023-08-20T08:00:44;24.90;69.60
37906;DHT22;23739;51.448;6.674;2023-08-20T08:03:09;25.20;53.80
37906;DHT22;23739;51.448;6.674;2023-08-20T08:05:36;24.90;55.00
37906;DHT22;23739;51.448;6.674;2023-08-20T08:08:02;25.20;52.00
37906;DHT22;23739;51.448;6.674;2023-08-20T08:10:28;25.50;51.80
37906;DHT22;23739;51.448;6.674;2023-08-20T08:12:54;25.30;55.90
37906;DHT22;23739;51.448;6.674;2023-08-20T08:15:20;26.20;43.10
37906;DHT22;23739;51.448;6.674;2023-08-20T08:17:46;26.10;39.60
37906;DHT22;23739;51.448;6.674;2023-08-20T08:20:12;25.90;41.10
37906;DHT22;23739;51.448;6.674;2023-08-20T08:22:39;25.90;40.20
37906;DHT22;23739;51.448;6.674;2023-08-20T08:25:05;26.00;42.90
37906;DHT22;23739;51.448;6.674;2023-08-20T08:27:31;26.20;40.40
37906;DHT22;23739;51.448;6.674;2023-08-20T08:29:57;26.10;33.70
37906;DHT22;23739;51.448;6.674;2023-08-20T08:32:23;26.30;40.20
37906;DHT22;23739;51.448;6.674;2023-08-20T08:34:49;27.30;50.90
37906;DHT22;23739;51.448;6.674;2023-08-20T08:37:15;27.50;25.00
37906;DHT22;23739;51.448;6.674;2023-08-20T08:39:41;26.70;26.30
37906;DHT22;23739;51.448;6.674;2023-08-20T08:42:07;26.60;28.20
37906;DHT22;23739;51.448;6.674;2023-08-20T08:44:37;27.10;27.00
37906;DHT22;23739;51.448;6.674;2023-08-20T08:47:05;26.30;27.10
37906;DHT22;23739;51.448;6.674;2023-08-20T08:49:34;26.90;27.30
37906;DHT22;23739;51.448;6.674;2023-08-20T08:52:00;27.20;30.30
37906;DHT22;23739;51.448;6.674;2023-08-20T08:54:27;27.30;24.40
37906;DHT22;23739;51.448;6.674;2023-08-20T08:56:53;27.60;44.90
37906;DHT22;23739;51.448;6.674;2023-08-20T08:59:25;28.20;21.30
37906;DHT22;23739;51.448;6.674;2023-08-20T09:01:50;27.60;32.20
37906;DHT22;23739;51.448;6.674;2023-08-20T09:04:16;27.00;30.50
37906;DHT22;23739;51.448;6.674;2023-08-20T09:06:51;26.40;28.80
37906;DHT22;23739;51.448;6.674;2023-08-20T09:09:18;26.50;25.70
37906;DHT22;23739;51.448;6.674;2023-08-20T09:11:45;26.90;36.30
37906;DHT22;23739;51.448;6.674;2023-08-20T09:14:22;26.70;24.70
37906;DHT22;23739;51.448;6.674;2023-08-20T09:16:55;26.40;30.20
37906;DHT22;23739;51.448;6.674;2023-08-20T09:19:24;26.00;29.40
37906;DHT22;23739;51.448;6.674;2023-08-20T09:21:50;25.50;33.40
37906;DHT22;23739;51.448;6.674;2023-08-20T09:24:26;25.30;33.30
37906;DHT22;23739;51.448;6.674;2023-08-20T09:26:58;25.60;29.60
37906;DHT22;23739;51.448;6.674;2023-08-20T09:29:33;25.50;28.90
37906;DHT22;23739;51.448;6.674;2023-08-20T09:32:03;26.60;37.70
37906;DHT22;23739;51.448;6.674;2023-08-20T09:34:38;27.00;19.80
37906;DHT22;23739;51.448;6.674;2023-08-20T09:37:16;27.10;21.40
37906;DHT22;23739;51.448;6.674;2023-08-20T09:39:42;27.20;18.10
37906;DHT22;23739;51.448;6.674;2023-08-20T09:42:09;28.20;17.10
37906;DHT22;23739;51.448;6.674;2023-08-20T09:44:37;28.50;12.60
37906;DHT22;23739;51.448;6.674;2023-08-20T09:47:15;27.10;12.90
37906;DHT22;23739;51.448;6.674;2023-08-20T09:49:47;26.00;20.30
37906;DHT22;23739;51.448;6.674;2023-08-20T09:52:25;26.00;20.90
37906;DHT22;23739;51.448;6.674;2023-08-20T09:57:35;27.70;15.10
37906;DHT22;23739;51.448;6.674;2023-08-20T10:00:03;27.40;14.00
37906;DHT22;23739;51.448;6.674;2023-08-20T10:02:31;26.70;16.80
37906;DHT22;23739;51.448;6.674;2023-08-20T10:04:59;26.60;19.00
37906;DHT22;23739;51.448;6.674;2023-08-20T10:07:29;26.40;17.90
37906;DHT22;23739;51.448;6.674;2023-08-20T10:09:59;26.60;20.70
37906;DHT22;23739;51.448;6.674;2023-08-20T10:12:30;27.00;15.20
37906;DHT22;23739;51.448;6.674;2023-08-20T10:14:57;27.40;13.30
37906;DHT22;23739;51.448;6.674;2023-08-20T10:17:24;27.60;11.90
37906;DHT22;23739;51.448;6.674;2023-08-20T10:19:53;27.80;10.10
37906;DHT22;23739;51.448;6.674;2023-08-20T10:22:19;28.10;11.60
37906;DHT22;23739;51.448;6.674;2023-08-20T10:24:52;28.50;12.00
37906;DHT22;23739;51.448;6.674;2023-08-20T10:27:31;28.00;9.80
37906;DHT22;23739;51.448;6.674;2023-08-20T10:30:01;27.80;9.60
37906;DHT22;23739;51.448;6.674;2023-08-20T10:35:10;28.50;6.20
37906;DHT22;23739;51.448;6.674;2023-08-20T10:37:36;27.80;7.30
37906;DHT22;23739;51.448;6.674;2023-08-20T10:40:08;27.70;11.30
37906;DHT22;23739;51.448;6.674;2023-08-20T10:42:41;28.20;6.90
37906;DHT22;23739;51.448;6.674;2023-08-20T10:45:09;28.10;6.60
37906;DHT22;23739;51.448;6.674;2023-08-20T10:47:45;27.60;7.60
37906;DHT22;23739;51.448;6.674;2023-08-20T10:50:15;27.90;6.30
37906;DHT22;23739;51.448;6.674;2023-08-20T10:52:43;28.50;8.80
37906;DHT22;23739;51.448;6.674;2023-08-20T10:55:13;28.70;4.50
37906;DHT22;23739;51.448;6.674;2023-08-20T10:57:39;28.90;7.20
37906;DHT22;23739;51.448;6.674;2023-08-20T11:00:05;28.90;2.90
37906;DHT22;23739;51.448;6.674;2023-08-20T11:02:40;27.60;3.70
37906;DHT22;23739;51.448;6.674;2023-08-20T11:05:18;28.60;5.40
37906;DHT22;23739;51.448;6.674;2023-08-20T11:07:48;28.30;6.10
37906;DHT22;23739;51.448;6.674;2023-08-20T11:10:15;27.70;4.40
37906;DHT22;23739;51.448;6.674;2023-08-20T11:12:42;27.40;2.70
37906;DHT22;23739;51.448;6.674;2023-08-20T11:15:09;27.30;6.70
37906;DHT22;23739;51.448;6.674;2023-08-20T11:17:41;27.30;4.50
37906;DHT22;23739;51.448;6.674;2023-08-20T11:20:07;27.70;4.00
37906;DHT22;23739;51.448;6.674;2023-08-20T11:22:33;28.40;2.70
37906;DHT22;23739;51.448;6.674;2023-08-20T11:25:00;28.20;1.00
37906;DHT22;23739;51.448;6.674;2023-08-20T11:27:28;29.30;2.80
37906;DHT22;23739;51.448;6.674;2023-08-20T11:29:54;29.40;1.00
37906;DHT22;23739;51.448;6.674;2023-08-20T11:32:23;27.90;1.00
37906;DHT22;23739;51.448;6.674;2023-08-20T11:34:49;28.10;1.00
37906;DHT22;23739;51.448;6.674;2023-08-20T11:37:23;28.10;1.00
37906;DHT22;23739;51.448;6.674;2023-08-20T11:39:49;28.60;7.20
37906;DHT22;23739;51.448;6.674;2023-08-20T11:42:15;30.50;4.20
37906;DHT22;23739;51.448;6.674;2023-08-20T11:44:43;29.20;1.00
37906;DHT22;23739;51.448;6.674;2023-08-20T11:47:16;28.80;1.00
37906;DHT22;23739;51.448;6.674;2023-08-20T11:49:43;28.60;1.00
37906;DHT22;23739;51.448;6.674;2023-08-20T11:52:09;27.60;1.50
37906;DHT22;23739;51.448;6.674;2023-08-20T11:54:35;27.80;1.40
37906;DHT22;23739;51.448;6.674;2023-08-20T11:57:05;28.20;1.00
37906;DHT22;23739;51.448;6.674;2023-08-20T11:59:32;29.20;1.00
37906;DHT22;23739;51.448;6.674;2023-08-20T12:01:59;29.70;1.00
37906;DHT22;23739;51.448;6.674;2023-08-20T12:04:31;29.70;1.00
37906;DHT22;23739;51.448;6.674;2023-08-20T12:07:13;28.60;1.00
37906;DHT22;23739;51.448;6.674;2023-08-20T12:09:39;28.20;1.00
37906;DHT22;23739;51.448;6.674;2023-08-20T12:12:08;27.60;1.00
37906;DHT22;23739;51.448;6.674;2023-08-20T12:14:35;27.90;1.00
37906;DHT22;23739;51.448;6.674;2023-08-20T12:17:01;28.90;1.00
37906;DHT22;23739;51.448;6.674;2023-08-20T12:19:28;29.30;1.00
37906;DHT22;23739;51.448;6.674;2023-08-20T12:21:54;30.90;1.00
37906;DHT22;23739;51.448;6.674;2023-08-20T12:24:20;31.00;1.00
37906;DHT22;23739;51.448;6.674;2023-08-20T12:26:47;29.20;1.00
37906;DHT22;23739;51.448;6.674;2023-08-20T12:29:13;29.30;1.00
37906;DHT22;23739;51.448;6.674;2023-08-20T12:31:40;30.20;1.00
37906;DHT22;23739;51.448;6.674;2023-08-20T12:34:07;30.00;1.00
37906;DHT22;23739;51.448;6.674;2023-08-20T12:36:33;30.60;1.00
37906;DHT22;23739;51.448;6.674;2023-08-20T12:38:59;30.80;1.00
37906;DHT22;23739;51.448;6.674;2023-08-20T12:41:25;30.80;1.00
37906;DHT22;23739;51.448;6.674;2023-08-20T12:43:52;30.90;1.00
37906;DHT22;23739;51.448;6.674;2023-08-20T12:46:18;30.80;1.00
37906;DHT22;23739;51.448;6.674;2023-08-20T12:48:43;30.70;1.00
37906;DHT22;23739;51.448;6.674;2023-08-20T12:51:10;30.90;1.00
37906;DHT22;23739;51.448;6.674;2023-08-20T12:53:39;31.80;1.00
37906;DHT22;23739;51.448;6.674;2023-08-20T12:56:05;31.90;1.00
37906;DHT22;23739;51.448;6.674;2023-08-20T12:58:31;31.60;1.00
37906;DHT22;23739;51.448;6.674;2023-08-20T13:00:56;31.90;1.00
37906;DHT22;23739;51.448;6.674;2023-08-20T13:03:22;32.30;1.00
37906;DHT22;23739;51.448;6.674;2023-08-20T13:05:48;33.30;1.00
37906;DHT22;23739;51.448;6.674;2023-08-20T13:08:15;31.50;1.00
37906;DHT22;23739;51.448;6.674;2023-08-20T13:10:41;32.20;1.00
37906;DHT22;23739;51.448;6.674;2023-08-20T13:13:10;31.60;1.00
37906;DHT22;23739;51.448;6.674;2023-08-20T13:15:37;32.40;1.00
37906;DHT22;23739;51.448;6.674;2023-08-20T13:18:03;31.80;1.00
37906;DHT22;23739;51.448;6.674;2023-08-20T13:20:29;32.10;1.00
37906;DHT22;23739;51.448;6.674;2023-08-20T13:22:55;33.30;1.00
37906;DHT22;23739;51.448;6.674;2023-08-20T13:25:21;33.20;1.00
37906;DHT22;23739;51.448;6.674;2023-08-20T13:27:47;33.50;1.00
37906;DHT22;23739;51.448;6.674;2023-08-20T13:30:13;32.00;1.00
37906;DHT22;23739;51.448;6.674;2023-08-20T13:32:39;31.80;1.00
37906;DHT22;23739;51.448;6.674;2023-08-20T13:35:05;32.30;1.00
37906;DHT22;23739;51.448;6.674;2023-08-20T13:37:32;33.10;1.00
37906;DHT22;23739;51.448;6.674;2023-08-20T13:39:58;34.00;1.00
37906;DHT22;23739;51.448;6.674;2023-08-20T13:42:24;33.00;1.00
37906;DHT22;23739;51.448;6.674;2023-08-20T13:44:50;32.20;1.00
37906;DHT22;23739;51.448;6.674;2023-08-20T13:47:16;32.60;1.00
37906;DHT22;23739;51.448;6.674;2023-08-20T13:49:41;31.40;1.00
37906;DHT22;23739;51.448;6.674;2023-08-20T13:52:07;31.30;1.00
37906;DHT22;23739;51.448;6.674;2023-08-20T13:54:35;31.20;1.00
37906;DHT22;23739;51.448;6.674;2023-08-20T13:57:00;31.00;1.00
37906;DHT22;23739;51.448;6.674;2023-08-20T13:59:26;31.00;1.00
37906;DHT22;23739;51.448;6.674;2023-08-20T14:01:52;32.10;1.00
37906;DHT22;23739;51.448;6.674;2023-08-20T14:04:18;31.90;1.00
37906;DHT22;23739;51.448;6.674;2023-08-20T14:06:44;31.70;1.00
37906;DHT22;23739;51.448;6.674;2023-08-20T14:09:09;30.70;1.00
37906;DHT22;23739;51.448;6.674;2023-08-20T14:11:35;31.10;1.00
37906;DHT22;23739;51.448;6.674;2023-08-20T14:14:01;32.40;1.00
37906;DHT22;23739;51.448;6.674;2023-08-20T14:16:27;31.60;1.00
37906;DHT22;23739;51.448;6.674;2023-08-20T14:18:53;33.80;1.00
37906;DHT22;23739;51.448;6.674;2023-08-20T14:21:19;32.90;1.00
37906;DHT22;23739;51.448;6.674;2023-08-20T14:23:45;31.20;1.00
37906;DHT22;23739;51.448;6.674;2023-08-20T14:26:10;30.50;1.00
37906;DHT22;23739;51.448;6.674;2023-08-20T14:28:36;32.80;1.00
37906;DHT22;23739;51.448;6.674;2023-08-20T14:31:03;32.70;1.00
37906;DHT22;23739;51.448;6.674;2023-08-20T14:33:32;32.30;1.00
37906;DHT22;23739;51.448;6.674;2023-08-20T14:35:58;32.20;1.00
37906;DHT22;23739;51.448;6.674;2023-08-20T14:38:24;32.30;1.00
37906;DHT22;23739;51.448;6.674;2023-08-20T14:40:49;33.80;1.00
37906;DHT22;23739;51.448;6.674;2023-08-20T14:43:15;34.00;1.00
37906;DHT22;23739;51.448;6.674;2023-08-20T14:45:41;35.40;1.00
37906;DHT22;23739;51.448;6.674;2023-08-20T14:48:07;33.40;1.00
37906;DHT22;23739;51.448;6.674;2023-08-20T14:50:32;33.60;1.00
37906;DHT22;23739;51.448;6.674;2023-08-20T14:52:59;33.90;1.00
37906;DHT22;23739;51.448;6.674;2023-08-20T14:55:25;35.60;1.00
37906;DHT22;23739;51.448;6.674;2023-08-20T14:57:51;35.50;1.00
37906;DHT22;23739;51.448;6.674;2023-08-20T15:00:16;33.60;1.00
37906;DHT22;23739;51.448;6.674;2023-08-20T15:02:49;33.30;1.00
37906;DHT22;23739;51.448;6.674;2023-08-20T15:05:16;33.80;1.00
37906;DHT22;23739;51.448;6.674;2023-08-20T15:07:41;33.60;1.00
37906;DHT22;23739;51.448;6.674;2023-08-20T15:10:07;33.60;1.00
37906;DHT22;23739;51.448;6.674;2023-08-20T15:12:34;34.60;1.00
37906;DHT22;23739;51.448;6.674;2023-08-20T15:15:02;33.80;1.00
37906;DHT22;23739;51.448;6.674;2023-08-20T15:17:29;32.60;1.00
37906;DHT22;23739;51.448;6.674;2023-08-20T15:19:55;32.60;1.00
37906;DHT22;23739;51.448;6.674;2023-08-20T15:22:21;33.00;1.00
37906;DHT22;23739;51.448;6.674;2023-08-20T15:24:47;32.80;1.00
37906;DHT22;23739;51.448;6.674;2023-08-20T15:27:13;34.10;1.00
37906;DHT22;23739;51.448;6.674;2023-08-20T15:29:39;35.70;1.00
37906;DHT22;23739;51.448;6.674;2023-08-20T15:32:05;36.00;1.00
37906;DHT22;23739;51.448;6.674;2023-08-20T15:34:31;36.00;1.00
37906;DHT22;23739;51.448;6.674;2023-08-20T15:36:56;36.00;1.00
37906;DHT22;23739;51.448;6.674;2023-08-20T15:39:22;34.30;1.00
37906;DHT22;23739;51.448;6.674;2023-08-20T15:41:49;34.90;1.00
37906;DHT22;23739;51.448;6.674;2023-08-20T15:44:14;35.90;1.00